Time;durP1;ratioP1;P1;durP2;ratioP2;P2;SDS_P1;SDS_P2;PMS_P1;PMS_P2;Temp;Humidity;BMP_temperature;BMP_pressure;BME280_temperature;BME280_humidity;BME280_pressure;Samples;Min_cycle;Max_cycle;Signal;HPM_P1;HPM_P2
2023/11/12 00:01:06;;;;;;;1.92;1.60;;;2.00;99.90;;;;;;4918099;29;20024;-84
2023/11/12 00:03:32;;;;;;;5.38;2.72;;;2.00;99.90;;;;;;4917151;29;20075;-83
2023/11/12 00:05:57;;;;;;;2.90;2.13;;;2.10;99.90;;;;;;4901739;29;20123;-82
2023/11/12 00:08:23;;;;;;;3.28;1.50;;;1.90;99.90;;;;;;4917083;29;20076;-83
2023/11/12 00:10:49;;;;;;;1.52;0.98;;;1.80;99.90;;;;;;4917699;29;20028;-83
2023/11/12 00:13:14;;;;;;;2.08;1.42;;;1.80;99.90;;;;;;4918368;29;20035;-83
2023/11/12 00:15:40;;;;;;;2.30;1.58;;;1.80;99.90;;;;;;4917900;29;20524;-83
2023/11/12 00:18:06;;;;;;;2.22;1.80;;;2.30;99.90;;;;;;4917158;29;20035;-83
2023/11/12 00:20:33;;;;;;;2.40;2.20;;;1.70;99.90;;;;;;4916702;29;20459;-83
2023/11/12 00:22:59;;;;;;;1.60;1.08;;;1.70;99.90;;;;;;4917213;29;20055;-82
2023/11/12 00:25:25;;;;;;;2.45;1.95;;;1.70;99.90;;;;;;4916634;29;20059;-83
2023/11/12 00:27:51;;;;;;;4.82;1.42;;;1.70;99.90;;;;;;4918476;29;20024;-84
2023/11/12 00:30:17;;;;;;;1.90;1.50;;;1.50;99.90;;;;;;4916835;29;20028;-83
2023/11/12 00:32:43;;;;;;;4.13;1.20;;;1.60;99.90;;;;;;4916742;29;20412;-83
2023/11/12 00:35:11;;;;;;;1.63;1.52;;;1.50;99.90;;;;;;4916772;29;20060;-83
2023/11/12 00:37:36;;;;;;;2.47;1.65;;;1.60;99.90;;;;;;4916998;29;20086;-83
2023/11/12 00:40:02;;;;;;;3.35;1.70;;;1.60;99.90;;;;;;4901167;29;20079;-83
2023/11/12 00:42:28;;;;;;;6.05;2.00;;;1.50;99.90;;;;;;4901158;29;20083;-83
2023/11/12 00:44:54;;;;;;;1.95;1.17;;;1.50;99.90;;;;;;4916617;29;20040;-82
2023/11/12 00:47:20;;;;;;;3.25;1.65;;;1.40;99.90;;;;;;4917113;29;20489;-82
2023/11/12 00:49:45;;;;;;;2.20;1.58;;;1.40;99.90;;;;;;4916980;29;20119;-82
2023/11/12 00:52:11;;;;;;;2.05;1.52;;;1.30;99.90;;;;;;4916900;29;20030;-82
2023/11/12 00:54:37;;;;;;;3.60;1.65;;;1.40;99.90;;;;;;4900686;29;20563;-82
2023/11/12 00:57:03;;;;;;;2.42;1.95;;;1.30;99.90;;;;;;4917930;29;20032;-82
2023/11/12 00:59:28;;;;;;;1.70;1.58;;;1.40;99.90;;;;;;4916372;29;20465;-81
2023/11/12 01:01:54;;;;;;;3.25;1.98;;;1.30;99.90;;;;;;4916197;29;20377;-83
2023/11/12 01:04:19;;;;;;;2.20;1.40;;;1.40;99.90;;;;;;4916203;29;20111;-83
2023/11/12 01:06:45;;;;;;;2.80;1.58;;;1.70;99.90;;;;;;4916341;29;20028;-82
2023/11/12 01:09:11;;;;;;;1.85;1.65;;;1.40;99.90;;;;;;4916387;29;20032;-82
2023/11/12 01:11:37;;;;;;;1.55;1.42;;;1.30;99.90;;;;;;4916230;29;20028;-83
2023/11/12 01:14:03;;;;;;;2.50;1.02;;;1.40;99.90;;;;;;4916358;29;20027;-82
2023/11/12 01:16:29;;;;;;;3.83;1.23;;;1.30;99.90;;;;;;4915779;29;20119;-81
2023/11/12 01:18:58;;;;;;;2.90;1.55;;;1.30;99.90;;;;;;4915935;29;20060;-82
2023/11/12 01:21:27;;;;;;;1.70;1.10;;;1.30;99.90;;;;;;4916321;29;20032;-82
2023/11/12 01:23:52;;;;;;;2.42;1.30;;;1.30;99.90;;;;;;4916367;29;20424;-83
2023/11/12 01:26:18;;;;;;;2.50;1.58;;;1.60;99.90;;;;;;4915992;29;20026;-82
2023/11/12 01:28:44;;;;;;;1.88;1.42;;;1.00;99.90;;;;;;4916216;29;20028;-82
2023/11/12 01:31:09;;;;;;;2.63;1.33;;;1.30;99.90;;;;;;4916353;29;20028;-83
2023/11/12 01:33:35;;;;;;;1.42;1.27;;;1.20;99.90;;;;;;4916498;29;20552;-82
2023/11/12 01:36:01;;;;;;;1.98;1.15;;;1.10;99.90;;;;;;4915961;29;20043;-82
2023/11/12 01:38:27;;;;;;;2.58;1.33;;;1.00;99.90;;;;;;4916026;29;20020;-83
2023/11/12 01:40:54;;;;;;;2.33;1.20;;;1.00;99.90;;;;;;4916471;29;20059;-81
2023/11/12 01:43:20;;;;;;;3.03;1.55;;;1.00;99.90;;;;;;4916189;29;20024;-83
2023/11/12 01:45:45;;;;;;;1.58;1.27;;;1.00;99.90;;;;;;4915997;29;20047;-83
2023/11/12 01:48:15;;;;;;;1.50;1.40;;;1.00;99.90;;;;;;4917385;29;20036;-83
2023/11/12 01:50:42;;;;;;;1.80;1.60;;;1.40;99.90;;;;;;4916189;29;20036;-83
2023/11/12 01:53:10;;;;;;;1.83;1.25;;;1.30;99.90;;;;;;4916130;29;20407;-82
2023/11/12 01:55:37;;;;;;;1.95;1.35;;;0.90;99.90;;;;;;4915810;29;20546;-82
2023/11/12 01:58:04;;;;;;;1.45;1.10;;;0.90;99.90;;;;;;4915880;29;20529;-82
2023/11/12 02:00:30;;;;;;;3.33;1.35;;;0.90;99.90;;;;;;4915773;29;20120;-82
2023/11/12 02:02:57;;;;;;;4.68;1.80;;;1.00;99.90;;;;;;4916159;29;20132;-82
2023/11/12 02:05:23;;;;;;;3.58;1.50;;;1.00;99.90;;;;;;4916025;29;20124;-83
2023/11/12 02:07:49;;;;;;;2.20;1.63;;;1.10;99.90;;;;;;4915674;29;20111;-82
2023/11/12 02:10:16;;;;;;;1.08;0.98;;;1.00;99.90;;;;;;4915834;29;20024;-82
2023/11/12 02:12:44;;;;;;;1.63;1.02;;;1.00;99.90;;;;;;4916031;29;20028;-82
2023/11/12 02:15:14;;;;;;;1.88;1.20;;;1.10;99.90;;;;;;4915400;29;20032;-82
2023/11/12 02:17:41;;;;;;;3.58;1.77;;;1.00;99.90;;;;;;4915820;29;20033;-82
2023/11/12 02:20:08;;;;;;;1.95;1.50;;;0.90;99.90;;;;;;4915561;29;20028;-82
2023/11/12 02:22:34;;;;;;;3.45;1.48;;;1.00;99.90;;;;;;4915799;29;20032;-82
2023/11/12 02:25:04;;;;;;;1.50;1.15;;;1.00;99.90;;;;;;4914986;29;20031;-82
2023/11/12 02:27:31;;;;;;;2.33;1.60;;;0.90;99.90;;;;;;4917689;29;20397;-83
2023/11/12 02:29:56;;;;;;;1.65;1.15;;;0.90;99.90;;;;;;4919362;29;20404;-83
2023/11/12 02:32:23;;;;;;;6.05;1.63;;;1.00;99.90;;;;;;4919564;29;20033;-82
2023/11/12 02:34:48;;;;;;;0.73;0.73;;;1.00;99.90;;;;;;4920392;29;20028;-82
2023/11/12 02:37:14;;;;;;;1.27;1.17;;;1.00;99.90;;;;;;4919137;29;20032;-82
2023/11/12 02:39:41;;;;;;;8.00;1.35;;;1.00;99.90;;;;;;4919198;29;20032;-83
2023/11/12 02:42:09;;;;;;;2.42;1.00;;;1.10;99.90;;;;;;4919367;29;20124;-82
2023/11/12 02:44:34;;;;;;;3.45;0.93;;;1.10;99.90;;;;;;4918958;29;20032;-82
2023/11/12 02:47:00;;;;;;;2.30;1.23;;;1.10;99.90;;;;;;4919525;29;20047;-83
2023/11/12 02:49:44;;;;;;;4.97;1.40;;;1.10;99.90;;;;;;4919491;29;20025;-82
2023/11/12 02:52:09;;;;;;;1.20;1.10;;;1.00;99.90;;;;;;4919169;29;20060;-82
2023/11/12 02:54:35;;;;;;;2.67;1.48;;;1.00;99.90;;;;;;4920274;29;20420;-83
2023/11/12 02:57:04;;;;;;;1.38;0.90;;;1.00;99.90;;;;;;4903829;29;20559;-83
2023/11/12 02:59:30;;;;;;;2.00;1.40;;;1.00;99.90;;;;;;4905224;29;20020;-83
2023/11/12 03:01:56;;;;;;;4.10;1.30;;;1.00;99.90;;;;;;4921156;29;20048;-82
2023/11/12 03:04:22;;;;;;;2.95;1.08;;;1.00;99.90;;;;;;4920342;29;20046;-83
2023/11/12 03:06:48;;;;;;;1.38;1.10;;;0.90;99.90;;;;;;4921180;29;20036;-82
2023/11/12 03:09:14;;;;;;;1.95;1.20;;;0.90;99.90;;;;;;4920715;29;20096;-83
2023/11/12 03:11:39;;;;;;;1.42;0.90;;;0.80;99.90;;;;;;4920346;29;20032;-83
2023/11/12 03:14:06;;;;;;;1.02;0.85;;;0.90;99.90;;;;;;4918520;29;20035;-83
2023/11/12 03:16:32;;;;;;;2.58;1.15;;;1.00;99.90;;;;;;4918265;29;20044;-83
2023/11/12 03:19:00;;;;;;;1.27;1.17;;;0.80;99.90;;;;;;4918457;29;20485;-83
2023/11/12 03:21:26;;;;;;;1.60;1.00;;;0.70;99.90;;;;;;4918763;29;20024;-82
2023/11/12 03:23:52;;;;;;;1.83;1.42;;;0.60;99.90;;;;;;4918450;29;20130;-83
2023/11/12 03:26:18;;;;;;;1.02;0.80;;;2.50;99.90;;;;;;4918798;29;20110;-83
2023/11/12 03:28:43;;;;;;;8.35;1.30;;;0.60;99.90;;;;;;4918204;29;20028;-82
2023/11/12 03:31:09;;;;;;;1.02;0.55;;;1.10;99.90;;;;;;4918537;29;20453;-83
2023/11/12 03:33:35;;;;;;;1.27;1.17;;;0.60;99.90;;;;;;4918260;29;20549;-83
2023/11/12 03:36:01;;;;;;;1.33;1.05;;;0.80;99.90;;;;;;4918700;29;20048;-82
2023/11/12 03:38:27;;;;;;;1.92;1.63;;;0.80;99.90;;;;;;4917222;29;20084;-83
2023/11/12 03:40:52;;;;;;;1.15;1.15;;;0.60;99.90;;;;;;4918920;29;20032;-83
2023/11/12 03:43:18;;;;;;;1.10;0.73;;;0.60;99.90;;;;;;4918396;29;20075;-83
2023/11/12 03:45:43;;;;;;;0.82;0.70;;;1.60;99.90;;;;;;4918122;29;20036;-83
2023/11/12 03:48:10;;;;;;;1.55;1.20;;;0.60;99.90;;;;;;4918622;29;20028;-83
2023/11/12 03:50:36;;;;;;;2.20;1.83;;;2.20;99.90;;;;;;4918647;29;20437;-83
2023/11/12 03:53:02;;;;;;;2.22;1.90;;;0.60;99.90;;;;;;4918651;29;20027;-84
2023/11/12 03:55:28;;;;;;;2.33;2.13;;;1.70;99.90;;;;;;4918375;29;20028;-83
2023/11/12 03:57:53;;;;;;;1.52;1.42;;;0.50;99.90;;;;;;4918676;29;20020;-83
2023/11/12 04:00:19;;;;;;;2.13;1.48;;;0.50;99.90;;;;;;4919140;29;20031;-83
2023/11/12 04:02:45;;;;;;;1.27;1.10;;;0.50;99.90;;;;;;4918941;29;20441;-83
2023/11/12 04:05:11;;;;;;;0.68;0.50;;;0.70;99.90;;;;;;4918390;29;20020;-82
2023/11/12 04:07:36;;;;;;;1.95;1.10;;;0.60;99.90;;;;;;4918693;29;20079;-83
2023/11/12 04:10:05;;;;;;;1.33;1.15;;;0.50;99.90;;;;;;4918021;29;20028;-83
2023/11/12 04:12:34;;;;;;;1.65;0.82;;;0.40;99.90;;;;;;4918450;29;20028;-83
2023/11/12 04:14:59;;;;;;;1.95;1.05;;;0.40;99.90;;;;;;4917965;29;20519;-83
2023/11/12 04:17:25;;;;;;;1.45;1.35;;;0.90;99.90;;;;;;4918630;29;20040;-83
2023/11/12 04:19:51;;;;;;;1.73;1.10;;;0.30;99.90;;;;;;4918358;29;20115;-82
2023/11/12 04:22:17;;;;;;;3.03;1.25;;;0.50;99.90;;;;;;4919079;29;20079;-83
2023/11/12 04:24:43;;;;;;;3.22;1.77;;;1.50;99.90;;;;;;4918211;29;20115;-83
2023/11/12 04:27:09;;;;;;;2.13;1.77;;;0.60;99.90;;;;;;4918458;29;20028;-83
2023/11/12 04:29:35;;;;;;;1.55;1.45;;;0.30;99.90;;;;;;4918192;29;20040;-83
2023/11/12 04:32:01;;;;;;;0.73;0.73;;;0.40;99.90;;;;;;4918456;29;20043;-83
2023/11/12 04:34:27;;;;;;;1.95;0.90;;;1.40;99.90;;;;;;4917573;29;20032;-83
2023/11/12 04:36:52;;;;;;;2.25;1.55;;;1.20;99.90;;;;;;4918786;29;20031;-83
2023/11/12 04:39:22;;;;;;;5.13;1.25;;;0.10;99.90;;;;;;4920410;29;20020;-83
2023/11/12 04:41:47;;;;;;;1.67;0.90;;;1.10;99.90;;;;;;4918347;29;20029;-83
2023/11/12 04:44:13;;;;;;;1.08;1.08;;;2.10;99.90;;;;;;4917537;29;20032;-82
2023/11/12 04:46:39;;;;;;;1.90;0.88;;;0.20;99.90;;;;;;4918092;29;20039;-83
2023/11/12 04:49:05;;;;;;;1.00;0.82;;;0.30;99.90;;;;;;4918343;29;20040;-83
2023/11/12 04:51:34;;;;;;;2.00;1.83;;;0.30;99.90;;;;;;4918026;29;20401;-84
2023/11/12 04:54:00;;;;;;;1.63;1.33;;;0.00;99.90;;;;;;4918183;29;20056;-83
2023/11/12 04:56:25;;;;;;;3.80;0.82;;;2.40;99.90;;;;;;4917840;29;20024;-83
2023/11/12 04:58:51;;;;;;;0.98;0.73;;;0.10;99.90;;;;;;4918529;29;20444;-83
2023/11/12 05:01:17;;;;;;;0.90;0.90;;;0.10;99.90;;;;;;4918188;29;20130;-83
2023/11/12 05:03:42;;;;;;;1.70;1.58;;;0.00;99.90;;;;;;4917902;29;20644;-83
2023/11/12 05:06:09;;;;;;;2.22;1.05;;;0.00;99.90;;;;;;4917480;29;20031;-82
2023/11/12 05:08:34;;;;;;;2.58;1.13;;;0.70;99.90;;;;;;4916888;29;20066;-82
2023/11/12 05:11:00;;;;;;;2.85;2.17;;;0.10;99.90;;;;;;4916927;29;20466;-82
2023/11/12 05:13:26;;;;;;;8.73;2.53;;;0.70;99.90;;;;;;4917093;29;20032;-82
2023/11/12 05:15:52;;;;;;;5.80;2.17;;;0.20;99.90;;;;;;4917194;29;20063;-82
2023/11/12 05:18:17;;;;;;;4.47;2.00;;;1.00;99.90;;;;;;4917059;29;20111;-82
2023/11/12 05:20:43;;;;;;;2.50;1.52;;;0.20;99.90;;;;;;4917585;29;20035;-82
2023/11/12 05:23:09;;;;;;;1.65;1.35;;;0.10;99.90;;;;;;4917173;29;20032;-82
2023/11/12 05:25:34;;;;;;;2.30;1.65;;;0.20;99.90;;;;;;4916690;29;20025;-82
2023/11/12 05:28:00;;;;;;;1.65;1.13;;;0.10;99.90;;;;;;4917859;29;20024;-82
2023/11/12 05:30:26;;;;;;;1.20;1.10;;;0.10;99.90;;;;;;4917977;29;20028;-82
2023/11/12 05:32:51;;;;;;;1.23;1.05;;;0.00;99.90;;;;;;4917479;29;20024;-82
2023/11/12 05:35:18;;;;;;;1.25;1.15;;;-0.10;99.90;;;;;;4918088;29;20036;-83
2023/11/12 05:37:44;;;;;;;1.67;1.50;;;-0.10;99.90;;;;;;4917460;29;20024;-83
2023/11/12 05:40:11;;;;;;;1.25;1.15;;;-0.10;99.90;;;;;;4919071;29;20024;-82
2023/11/12 05:42:37;;;;;;;2.60;1.50;;;-0.10;99.90;;;;;;4918297;29;20024;-83
2023/11/12 05:45:03;;;;;;;1.13;1.02;;;-0.10;99.90;;;;;;4918011;29;20497;-83
2023/11/12 05:47:28;;;;;;;3.35;1.75;;;0.00;99.90;;;;;;4917968;29;20032;-83
2023/11/12 05:49:54;;;;;;;1.52;1.42;;;0.00;99.90;;;;;;4918285;29;20034;-84
2023/11/12 05:52:20;;;;;;;2.95;1.10;;;0.00;99.90;;;;;;4918007;29;20028;-83
2023/11/12 05:54:46;;;;;;;1.75;1.35;;;0.00;99.90;;;;;;4917559;29;20028;-83
2023/11/12 05:57:11;;;;;;;2.63;1.50;;;0.20;99.90;;;;;;4916825;29;20032;-83
2023/11/12 05:59:37;;;;;;;1.42;1.33;;;-0.10;99.90;;;;;;4916952;29;20024;-82
2023/11/12 06:02:03;;;;;;;3.42;1.50;;;0.70;99.90;;;;;;4919249;29;20508;-82
2023/11/12 06:04:29;;;;;;;1.88;1.42;;;-0.10;99.90;;;;;;4921507;29;20105;-82
2023/11/12 06:06:54;;;;;;;2.88;2.20;;;-0.20;99.90;;;;;;4920645;29;20044;-81
2023/11/12 06:09:20;;;;;;;4.15;2.25;;;-0.20;99.90;;;;;;4920283;29;20032;-83
2023/11/12 06:11:47;;;;;;;2.17;1.83;;;-0.10;99.90;;;;;;4904788;29;20028;-82
2023/11/12 06:14:13;;;;;;;3.17;2.50;;;-0.10;99.90;;;;;;4920254;29;20064;-83
2023/11/12 06:16:39;;;;;;;6.72;3.35;;;-0.10;99.90;;;;;;4920323;29;20400;-83
2023/11/12 06:19:05;;;;;;;2.20;2.00;;;-0.10;99.90;;;;;;4920041;29;20024;-83
2023/11/12 06:21:31;;;;;;;2.33;2.13;;;-0.10;99.90;;;;;;4920873;29;20460;-83
2023/11/12 06:23:56;;;;;;;2.45;1.38;;;0.10;99.90;;;;;;4921412;29;20140;-83
2023/11/12 06:26:22;;;;;;;1.75;1.63;;;0.00;99.90;;;;;;4905615;29;20028;-82
2023/11/12 06:28:48;;;;;;;2.15;1.35;;;-0.10;99.90;;;;;;4922611;29;20409;-82
2023/11/12 06:31:15;;;;;;;1.83;1.13;;;0.00;99.90;;;;;;4922596;29;20099;-82
2023/11/12 06:33:43;;;;;;;5.38;1.40;;;0.00;99.90;;;;;;4921141;29;20033;-81
2023/11/12 06:36:13;;;;;;;2.85;1.75;;;0.00;99.90;;;;;;4920461;29;20025;-83
2023/11/12 06:38:41;;;;;;;1.52;1.15;;;0.00;99.90;;;;;;4921073;29;20028;-84
2023/11/12 06:41:09;;;;;;;2.70;1.70;;;0.10;99.90;;;;;;4921701;29;20111;-83
2023/11/12 06:43:38;;;;;;;1.95;1.67;;;0.20;99.90;;;;;;4920921;29;20144;-82
2023/11/12 06:46:05;;;;;;;1.67;1.52;;;0.30;99.90;;;;;;4920253;29;20386;-82
2023/11/12 06:48:30;;;;;;;2.70;1.33;;;0.60;99.90;;;;;;4921055;29;20386;-82
2023/11/12 06:50:56;;;;;;;2.97;1.13;;;0.30;99.90;;;;;;4920769;29;20116;-77
2023/11/12 06:53:22;;;;;;;4.22;1.45;;;0.40;99.90;;;;;;4922253;29;20033;-78
2023/11/12 06:55:47;;;;;;;1.05;1.00;;;2.90;99.90;;;;;;4923115;29;20489;-79
2023/11/12 06:58:13;;;;;;;4.30;1.52;;;1.50;99.90;;;;;;4923195;29;20036;-77
2023/11/12 07:00:39;;;;;;;4.55;2.03;;;1.30;99.90;;;;;;4921777;29;20024;-79
2023/11/12 07:03:04;;;;;;;4.38;2.08;;;1.00;99.90;;;;;;4905648;29;20027;-79
2023/11/12 07:05:31;;;;;;;4.15;1.55;;;1.00;99.90;;;;;;4927747;29;20405;-79
2023/11/12 07:08:00;;;;;;;6.20;1.67;;;1.10;99.90;;;;;;4909027;29;20029;-81
2023/11/12 07:10:26;;;;;;;1.50;1.25;;;1.00;99.90;;;;;;4924839;29;20091;-79
2023/11/12 07:12:52;;;;;;;3.80;1.65;;;1.00;99.90;;;;;;4927975;29;20035;-79
2023/11/12 07:15:17;;;;;;;4.13;1.25;;;1.00;99.90;;;;;;4925279;29;20091;-78
2023/11/12 07:17:47;;;;;;;1.42;1.33;;;1.10;99.90;;;;;;4924226;29;20063;-78
2023/11/12 07:20:13;;;;;;;1.25;1.02;;;1.10;99.90;;;;;;4923402;29;20029;-78
2023/11/12 07:22:38;;;;;;;2.90;2.10;;;2.00;99.90;;;;;;4908179;29;20100;-78
2023/11/12 07:25:04;;;;;;;4.50;1.65;;;1.20;99.90;;;;;;4907648;29;20370;-77
2023/11/12 07:27:31;;;;;;;1.92;1.50;;;1.20;99.90;;;;;;4925288;29;20035;-79
2023/11/12 07:29:58;;;;;;;3.38;1.75;;;1.40;99.90;;;;;;4926278;29;20028;-78
2023/11/12 07:32:23;;;;;;;8.80;2.22;;;1.30;99.90;;;;;;4925774;29;20036;-78
2023/11/12 07:34:49;;;;;;;14.02;2.88;;;1.40;99.90;;;;;;4926484;29;20028;-79
2023/11/12 07:37:15;;;;;;;2.60;2.03;;;1.50;99.90;;;;;;4911213;29;20108;-81
2023/11/12 07:39:40;;;;;;;11.65;2.20;;;1.50;99.90;;;;;;4927875;29;20028;-81
2023/11/12 07:42:07;;;;;;;2.38;1.90;;;1.50;99.90;;;;;;4929811;29;20055;-81
2023/11/12 07:44:35;;;;;;;3.88;2.22;;;1.60;99.90;;;;;;4930098;29;20052;-81
2023/11/12 07:47:00;;;;;;;2.65;1.85;;;1.60;99.90;;;;;;4934799;29;20059;-82
2023/11/12 07:49:26;;;;;;;3.78;2.58;;;1.70;99.90;;;;;;4921634;29;20028;-79
2023/11/12 07:51:52;;;;;;;6.43;2.38;;;1.80;99.90;;;;;;4940446;29;20020;-76
2023/11/12 07:54:18;;;;;;;3.25;2.65;;;1.90;99.90;;;;;;4941484;29;20115;-76
2023/11/12 07:56:44;;;;;;;2.03;1.80;;;2.00;99.90;;;;;;4940767;29;20056;-80
2023/11/12 07:59:10;;;;;;;3.15;1.92;;;2.10;99.90;;;;;;4940964;29;20083;-78
2023/11/12 08:01:35;;;;;;;1.25;1.15;;;2.20;99.90;;;;;;4925248;29;20151;-81
2023/11/12 08:04:01;;;;;;;3.67;1.50;;;2.90;99.90;;;;;;4940437;29;20021;-81
2023/11/12 08:06:27;;;;;;;2.17;1.50;;;2.40;99.90;;;;;;4940224;29;20040;-77
2023/11/12 08:08:53;;;;;;;1.00;1.00;;;2.50;99.90;;;;;;4941018;29;20032;-77
2023/11/12 08:11:19;;;;;;;1.20;1.10;;;2.60;99.90;;;;;;4941101;29;20107;-80
2023/11/12 08:13:45;;;;;;;2.92;1.58;;;2.70;99.90;;;;;;4939991;29;20032;-78
2023/11/12 08:16:10;;;;;;;3.17;1.40;;;2.90;99.90;;;;;;4940822;29;20032;-75
2023/11/12 08:18:37;;;;;;;2.50;1.35;;;2.90;99.90;;;;;;4940657;29;20031;-82
2023/11/12 08:21:03;;;;;;;5.90;1.80;;;2.70;99.90;;;;;;4940506;29;20013;-79
2023/11/12 08:23:28;;;;;;;2.13;1.40;;;3.10;99.90;;;;;;4936773;29;20032;-80
2023/11/12 08:25:54;;;;;;;2.92;1.35;;;3.20;99.90;;;;;;4927820;29;20050;-77
2023/11/12 08:28:23;;;;;;;4.25;2.35;;;3.60;99.90;;;;;;4900789;29;20033;-79
2023/11/12 08:30:49;;;;;;;4.75;1.85;;;3.40;99.90;;;;;;4916616;29;20038;-77
2023/11/12 08:33:14;;;;;;;2.13;1.83;;;4.40;99.90;;;;;;4900724;29;20127;-77
2023/11/12 08:35:40;;;;;;;3.15;2.85;;;3.70;99.90;;;;;;4916179;29;20042;-80
2023/11/12 08:38:06;;;;;;;4.40;2.40;;;4.60;99.90;;;;;;4917817;29;20036;-78
2023/11/12 08:40:32;;;;;;;3.67;2.05;;;3.90;99.90;;;;;;4916407;29;20020;-78
2023/11/12 08:42:57;;;;;;;2.10;1.77;;;4.00;99.90;;;;;;4917671;29;20020;-78
2023/11/12 08:45:24;;;;;;;2.20;1.92;;;4.70;99.90;;;;;;4917017;29;20500;-76
2023/11/12 08:47:49;;;;;;;4.20;2.50;;;4.20;99.90;;;;;;4917838;29;20030;-77
2023/11/12 08:50:15;;;;;;;3.55;2.13;;;5.20;99.90;;;;;;4917598;29;20408;-76
2023/11/12 08:52:41;;;;;;;6.13;1.90;;;5.20;99.90;;;;;;4918035;29;20083;-80
2023/11/12 08:55:07;;;;;;;3.08;1.67;;;4.50;99.90;;;;;;4901308;29;20436;-78
2023/11/12 08:57:33;;;;;;;6.38;1.85;;;4.60;99.90;;;;;;4916379;29;20056;-76
2023/11/12 08:59:59;;;;;;;3.63;1.67;;;4.60;99.90;;;;;;4917509;29;20039;-76
2023/11/12 09:02:24;;;;;;;3.63;1.70;;;5.40;99.90;;;;;;4916438;29;20051;-76
2023/11/12 09:04:50;;;;;;;2.60;1.88;;;4.80;99.90;;;;;;4915877;29;20047;-78
2023/11/12 09:07:15;;;;;;;3.28;2.00;;;4.90;99.90;;;;;;4918164;29;20028;-77
2023/11/12 09:09:41;;;;;;;2.05;1.63;;;5.50;99.90;;;;;;4917353;29;20025;-76
2023/11/12 09:12:07;;;;;;;1.63;1.52;;;5.40;99.90;;;;;;4915811;29;20035;-78
2023/11/12 09:14:32;;;;;;;2.35;1.48;;;5.40;99.90;;;;;;4916780;29;20036;-76
2023/11/12 09:16:58;;;;;;;5.53;2.30;;;6.20;99.90;;;;;;4915973;29;20048;-76
2023/11/12 09:19:24;;;;;;;4.60;3.13;;;5.90;99.90;;;;;;4917214;29;20024;-76
2023/11/12 09:21:50;;;;;;;3.70;3.40;;;5.80;99.90;;;;;;4915785;29;20400;-76
2023/11/12 09:24:15;;;;;;;1.77;1.67;;;5.60;99.90;;;;;;4917118;29;20059;-76
2023/11/12 09:26:41;;;;;;;1.63;1.52;;;6.10;99.90;;;;;;4915210;29;20028;-77
2023/11/12 09:29:07;;;;;;;2.20;2.00;;;6.40;99.90;;;;;;4917168;29;20111;-78
2023/11/12 09:31:32;;;;;;;3.13;2.22;;;6.80;99.90;;;;;;4915252;29;20412;-76
2023/11/12 09:33:58;;;;;;;7.40;1.77;;;6.50;99.90;;;;;;4916628;29;20147;-77
2023/11/12 09:36:24;;;;;;;4.13;2.80;;;6.60;99.90;;;;;;4899484;29;20028;-78
2023/11/12 09:38:50;;;;;;;1.98;1.65;;;6.70;99.90;;;;;;4915263;29;20032;-76
2023/11/12 09:41:16;;;;;;;2.00;1.40;;;6.80;99.90;;;;;;4899663;29;20028;-76
2023/11/12 09:43:42;;;;;;;3.40;1.52;;;6.90;99.90;;;;;;4915469;29;20024;-76
2023/11/12 09:46:08;;;;;;;1.50;1.40;;;7.20;99.90;;;;;;4915622;29;20119;-78
2023/11/12 09:48:36;;;;;;;1.65;1.23;;;7.10;99.90;;;;;;4900083;29;20043;-79
2023/11/12 09:51:09;;;;;;;2.80;1.65;;;7.20;99.90;;;;;;4917512;29;20024;-76
2023/11/12 09:53:39;;;;;;;0.98;0.98;;;7.30;99.90;;;;;;4917728;29;20028;-78
2023/11/12 09:56:09;;;;;;;1.48;1.00;;;7.40;99.90;;;;;;4917318;29;20032;-78
2023/11/12 09:58:35;;;;;;;1.48;0.93;;;7.40;99.90;;;;;;4918279;29;20048;-76
2023/11/12 10:01:01;;;;;;;3.15;1.23;;;7.60;99.90;;;;;;4918115;29;20020;-78
2023/11/12 10:03:27;;;;;;;1.58;0.93;;;7.80;99.90;;;;;;4918613;29;20092;-79
2023/11/12 10:05:53;;;;;;;0.88;0.70;;;7.60;99.90;;;;;;4921376;29;20055;-77
2023/11/12 10:08:19;;;;;;;1.35;0.88;;;7.80;99.90;;;;;;4920456;29;20080;-77
2023/11/12 10:10:47;;;;;;;2.30;0.85;;;7.80;99.90;;;;;;4914545;29;20028;-79
2023/11/12 10:13:13;;;;;;;5.55;4.75;;;8.10;99.90;;;;;;4917021;29;20071;-77
2023/11/12 10:15:39;;;;;;;2.40;2.20;;;7.90;99.90;;;;;;4899777;29;20028;-76
2023/11/12 10:18:06;;;;;;;2.58;1.60;;;8.00;99.90;;;;;;4918957;29;20032;-78
2023/11/12 10:20:37;;;;;;;1.30;1.20;;;8.10;99.90;;;;;;4920189;29;20016;-77
2023/11/12 10:23:03;;;;;;;1.02;1.00;;;8.20;99.90;;;;;;4916309;29;20115;-79
2023/11/12 10:25:40;;;;;;;2.95;1.27;;;8.20;99.90;;;;;;4917027;29;20020;-80
2023/11/12 10:28:21;;;;;;;0.80;0.80;;;8.30;99.90;;;;;;4916913;29;20033;-77
2023/11/12 10:30:53;;;;;;;0.70;0.70;;;8.30;99.70;;;;;;4916081;29;20043;-77
2023/11/12 10:33:23;;;;;;;2.42;1.40;;;8.40;98.90;;;;;;4917967;29;20032;-77
2023/11/12 10:35:49;;;;;;;1.00;0.90;;;8.50;99.00;;;;;;4919599;29;20035;-79
2023/11/12 10:38:17;;;;;;;1.27;0.60;;;8.60;99.20;;;;;;4939908;28;20037;-80
2023/11/12 10:40:58;;;;;;;1.05;1.00;;;8.80;97.10;;;;;;4939620;29;20021;-80
2023/11/12 10:43:24;;;;;;;1.08;0.57;;;9.00;96.90;;;;;;4923105;29;20056;-78
2023/11/12 10:46:06;;;;;;;2.58;0.82;;;8.90;95.00;;;;;;4934025;29;20048;-84
2023/11/12 10:48:33;;;;;;;0.52;0.52;;;9.00;93.60;;;;;;4937706;28;20033;-77
2023/11/12 10:51:01;;;;;;;1.65;0.50;;;9.10;93.20;;;;;;4933405;29;20044;-77
2023/11/12 10:53:30;;;;;;;4.38;1.20;;;9.10;93.40;;;;;;4914823;29;20067;-77
2023/11/12 10:56:01;;;;;;;2.00;1.30;;;9.20;94.30;;;;;;4929607;29;20031;-78
2023/11/12 10:58:31;;;;;;;5.28;2.58;;;9.30;93.40;;;;;;4929319;29;20024;-76
2023/11/12 11:00:59;;;;;;;2.45;1.35;;;9.40;94.10;;;;;;4931115;29;20024;-78
2023/11/12 11:03:33;;;;;;;0.73;0.65;;;9.40;93.40;;;;;;4931267;29;20016;-78
2023/11/12 11:06:01;;;;;;;0.93;0.77;;;9.50;94.00;;;;;;4930077;29;20328;-78
2023/11/12 11:08:28;;;;;;;1.40;0.50;;;9.50;90.20;;;;;;4933554;29;20051;-81
2023/11/12 11:10:54;;;;;;;1.05;0.55;;;9.60;90.30;;;;;;4934158;29;20035;-79
2023/11/12 11:13:21;;;;;;;0.82;0.63;;;9.60;90.60;;;;;;4935823;29;20028;-78
2023/11/12 11:15:52;;;;;;;2.65;0.90;;;9.60;86.70;;;;;;4933797;29;20032;-81
2023/11/12 11:18:35;;;;;;;3.05;0.88;;;9.60;86.80;;;;;;4933742;29;20023;-80
2023/11/12 11:21:16;;;;;;;1.15;1.00;;;9.70;85.80;;;;;;4920669;29;20012;-79
2023/11/12 11:23:56;;;;;;;0.75;0.70;;;9.80;83.40;;;;;;4935584;29;20021;-78
2023/11/12 11:26:25;;;;;;;0.68;0.68;;;9.80;85.60;;;;;;4933614;29;20072;-77
2023/11/12 11:29:05;;;;;;;0.70;0.70;;;10.00;83.20;;;;;;4934186;29;20035;-77
2023/11/12 11:31:31;;;;;;;0.68;0.60;;;10.00;85.10;;;;;;4934158;29;20683;-78
2023/11/12 11:33:58;;;;;;;1.05;0.82;;;10.00;84.70;;;;;;4916715;29;20101;-79
2023/11/12 11:36:25;;;;;;;0.32;0.30;;;10.10;84.50;;;;;;4933810;29;20028;-78
2023/11/12 11:39:06;;;;;;;0.70;0.70;;;10.20;77.40;;;;;;4934839;29;20024;-77
2023/11/12 11:41:35;;;;;;;0.95;0.52;;;10.20;78.50;;;;;;4934438;29;20024;-80
2023/11/12 11:44:40;;;;;;;1.83;1.42;;;10.20;77.80;;;;;;4934111;29;20032;-78
2023/11/12 11:47:05;;;;;;;1.75;1.42;;;10.20;79.10;;;;;;4918154;29;20152;-80
2023/11/12 11:49:31;;;;;;;1.13;0.93;;;10.20;78.60;;;;;;4916643;29;20035;-78
2023/11/12 11:52:00;;;;;;;0.95;0.60;;;10.10;77.20;;;;;;4928505;29;20028;-79
2023/11/12 11:54:26;;;;;;;0.65;0.60;;;10.10;76.20;;;;;;4925620;29;20028;-78
2023/11/12 11:56:52;;;;;;;1.08;0.98;;;10.20;77.80;;;;;;4923683;29;20032;-79
2023/11/12 11:59:19;;;;;;;1.70;1.50;;;10.30;78.50;;;;;;4922653;29;20087;-78
2023/11/12 12:01:49;;;;;;;0.60;0.50;;;10.30;77.00;;;;;;4926169;29;20031;-80
2023/11/12 12:04:15;;;;;;;2.33;1.02;;;10.40;77.10;;;;;;4926600;29;20031;-80
2023/11/12 12:06:46;;;;;;;1.40;1.13;;;10.40;77.10;;;;;;4926348;29;20123;-79
2023/11/12 12:09:16;;;;;;;1.38;0.98;;;10.40;79.50;;;;;;4924476;29;20192;-78
2023/11/12 12:11:44;;;;;;;0.50;0.50;;;10.50;80.00;;;;;;4926090;29;20044;-78
2023/11/12 12:14:11;;;;;;;0.68;0.55;;;10.50;78.00;;;;;;4924398;29;20024;-78
2023/11/12 12:16:39;;;;;;;1.02;0.93;;;10.50;78.10;;;;;;4925416;29;20481;-78
2023/11/12 12:19:08;;;;;;;2.10;1.42;;;10.50;79.00;;;;;;4923579;29;20088;-78
2023/11/12 12:21:36;;;;;;;1.15;1.02;;;10.60;78.90;;;;;;4924805;29;20028;-79
2023/11/12 12:24:06;;;;;;;1.20;0.90;;;10.60;79.60;;;;;;4923368;29;20028;-77
2023/11/12 12:26:31;;;;;;;1.70;1.20;;;10.60;80.10;;;;;;4921954;29;20024;-78
2023/11/12 12:28:57;;;;;;;9.90;5.05;;;10.70;79.80;;;;;;4922696;29;20028;-79
2023/11/12 12:31:28;;;;;;;6.00;3.58;;;10.70;77.00;;;;;;4922905;29;20060;-78
2023/11/12 12:34:03;;;;;;;1.48;1.10;;;10.70;77.10;;;;;;4922535;29;20035;-79
2023/11/12 12:36:29;;;;;;;1.05;1.05;;;10.80;76.80;;;;;;4921743;29;20028;-79
2023/11/12 12:38:59;;;;;;;1.17;1.10;;;10.90;76.30;;;;;;4921301;29;20059;-80
2023/11/12 12:41:28;;;;;;;0.40;0.40;;;10.90;76.30;;;;;;4919798;29;20031;-78
2023/11/12 12:43:56;;;;;;;0.47;0.47;;;10.90;74.80;;;;;;4920724;29;20032;-77
2023/11/12 12:46:23;;;;;;;2.42;0.68;;;10.90;76.00;;;;;;4920929;29;20111;-78
2023/11/12 12:49:00;;;;;;;0.80;0.80;;;10.80;76.50;;;;;;4921943;29;20031;-79
2023/11/12 12:51:27;;;;;;;4.60;1.20;;;10.80;76.40;;;;;;4920012;29;20028;-77
2023/11/12 12:53:55;;;;;;;1.23;0.90;;;10.80;75.50;;;;;;4921222;29;20040;-78